createdAt,value
2023-04-13T00:01:00.175Z,0.77
2023-04-13T00:03:27.447Z,0.70
2023-04-13T00:05:54.754Z,0.95
2023-04-13T00:11:01.866Z,0.90
2023-04-13T00:13:28.886Z,0.50
2023-04-13T00:15:56.516Z,0.60
2023-04-13T00:18:23.996Z,0.75
2023-04-13T00:20:51.033Z,0.80
2023-04-13T00:23:31.614Z,0.80
2023-04-13T00:25:59.599Z,0.80
2023-04-13T00:28:26.651Z,0.77
2023-04-13T00:30:54.905Z,0.90
2023-04-13T00:33:21.995Z,1.05
2023-04-13T00:35:49.073Z,0.80
2023-04-13T00:40:55.942Z,1.20
2023-04-13T00:46:05.234Z,1.00
2023-04-13T00:48:32.330Z,0.60
2023-04-13T00:50:59.400Z,0.50
2023-04-13T00:53:27.728Z,1.00
2023-04-13T00:55:55.244Z,0.95
2023-04-13T00:58:22.899Z,0.80
2023-04-13T01:00:50.004Z,0.77
2023-04-13T01:03:18.003Z,0.43
2023-04-13T01:05:56.031Z,1.10
2023-04-13T01:08:23.116Z,0.70
2023-04-13T01:10:54.192Z,0.55
2023-04-13T01:13:24.011Z,1.00
2023-04-13T01:15:55.921Z,0.60
2023-04-13T01:21:12.851Z,0.88
2023-04-13T01:23:51.362Z,0.90
2023-04-13T01:26:18.396Z,1.00
2023-04-13T01:28:47.078Z,0.73
2023-04-13T01:31:14.346Z,0.75
2023-04-13T01:33:42.151Z,0.50
2023-04-13T01:36:10.974Z,0.90
2023-04-13T01:38:38.137Z,1.13
2023-04-13T01:41:16.472Z,0.50
2023-04-13T01:43:43.615Z,0.80
2023-04-13T01:46:13.806Z,0.50
2023-04-13T01:48:49.411Z,0.85
2023-04-13T01:51:18.100Z,1.20
2023-04-13T01:53:47.189Z,0.73
2023-04-13T01:56:16.136Z,1.17
2023-04-13T01:58:43.753Z,0.75
2023-04-13T02:01:10.908Z,0.55
2023-04-13T02:03:38.699Z,1.13
2023-04-13T02:06:07.348Z,0.90
2023-04-13T02:08:36.805Z,0.60
2023-04-13T02:11:10.432Z,0.60
2023-04-13T02:13:37.625Z,1.42
2023-04-13T02:16:06.804Z,0.60
2023-04-13T02:18:33.862Z,0.40
2023-04-13T02:21:08.383Z,0.60
2023-04-13T02:23:40.397Z,0.60
2023-04-13T02:26:10.421Z,0.80
2023-04-13T02:28:37.407Z,0.55
2023-04-13T02:31:05.756Z,0.60
2023-04-13T02:33:33.327Z,0.40
2023-04-13T02:36:02.176Z,0.52
2023-04-13T02:41:09.027Z,0.53
2023-04-13T02:43:36.117Z,0.50
2023-04-13T02:46:03.210Z,0.50
2023-04-13T02:48:30.587Z,0.63
2023-04-13T02:50:57.626Z,0.40
2023-04-13T02:53:25.214Z,1.35
2023-04-13T02:55:58.478Z,1.23
2023-04-13T02:58:25.468Z,0.90
2023-04-13T03:00:52.713Z,0.70
2023-04-13T03:03:20.315Z,0.70
2023-04-13T03:05:50.249Z,0.30
2023-04-13T03:08:17.376Z,0.95
2023-04-13T03:13:21.933Z,0.52
2023-04-13T03:15:48.950Z,1.00
2023-04-13T03:18:16.277Z,0.80
2023-04-13T03:20:44.060Z,1.55
2023-04-13T03:23:11.715Z,0.50
2023-04-13T03:28:19.669Z,0.80
2023-04-13T03:30:46.735Z,0.82
2023-04-13T03:33:13.838Z,0.88
2023-04-13T03:35:40.909Z,0.80
2023-04-13T03:38:07.956Z,1.52
2023-04-13T03:45:52.975Z,1.00
2023-04-13T03:48:20.219Z,0.77
2023-04-13T03:50:47.272Z,0.85
2023-04-13T03:53:14.413Z,0.70
2023-04-13T03:58:12.330Z,0.47
2023-04-13T04:00:39.397Z,1.13
2023-04-13T04:03:06.567Z,1.20
2023-04-13T04:05:33.740Z,0.73
2023-04-13T04:08:00.832Z,1.17
2023-04-13T04:13:11.039Z,0.90
2023-04-13T04:15:38.099Z,1.10
2023-04-13T04:18:05.372Z,0.70
2023-04-13T04:20:32.955Z,0.40
2023-04-13T04:23:01.109Z,1.10
2023-04-13T04:31:05.642Z,0.90
2023-04-13T04:33:32.670Z,0.60
2023-04-13T04:36:01.638Z,0.80
2023-04-13T04:38:30.377Z,1.17
2023-04-13T04:40:57.865Z,0.88
2023-04-13T04:46:04.435Z,1.13
2023-04-13T04:48:31.726Z,1.38
2023-04-13T04:50:59.915Z,1.15
2023-04-13T04:53:27.142Z,0.77
2023-04-13T04:55:54.260Z,0.63
2023-04-13T05:01:04.266Z,1.00
2023-04-13T05:03:31.732Z,0.68
2023-04-13T05:05:58.812Z,0.80
2023-04-13T05:08:25.958Z,0.65
2023-04-13T05:10:52.960Z,1.80
2023-04-13T05:18:55.340Z,1.02
2023-04-13T05:21:22.892Z,0.80
2023-04-13T05:23:49.953Z,0.98
2023-04-13T05:26:17.411Z,0.68
2023-04-13T05:28:44.442Z,0.90
2023-04-13T05:34:24.328Z,0.82
2023-04-13T05:36:53.510Z,0.80
2023-04-13T05:39:20.798Z,0.60
2023-04-13T05:41:47.873Z,1.00
2023-04-13T05:44:14.893Z,0.63
2023-04-13T05:46:42.150Z,0.75
2023-04-13T05:51:51.434Z,0.60
2023-04-13T05:54:18.474Z,0.65
2023-04-13T05:56:54.329Z,0.65
2023-04-13T05:59:21.683Z,0.82
2023-04-13T06:01:51.661Z,0.73
2023-04-13T06:06:50.147Z,0.95
2023-04-13T06:09:17.210Z,0.75
2023-04-13T06:11:44.272Z,0.80
2023-04-13T06:14:11.578Z,1.13
2023-04-13T06:16:41.423Z,1.05
2023-04-13T06:21:49.827Z,0.85
2023-04-13T06:24:17.598Z,0.63
2023-04-13T06:26:44.811Z,0.93
2023-04-13T06:29:11.790Z,0.60
2023-04-13T06:31:38.856Z,0.43
2023-04-13T06:34:12.237Z,1.85
2023-04-13T06:36:40.559Z,0.52
2023-04-13T06:39:11.850Z,0.70
2023-04-13T07:53:52.999Z,0.40
2023-04-13T08:18:42.056Z,0.85
2023-04-13T08:32:16.899Z,0.80
2023-04-13T09:16:27.900Z,1.60
2023-04-13T10:30:53.860Z,1.98
2023-04-13T10:33:38.100Z,1.38
2023-04-13T10:38:49.972Z,1.35
2023-04-13T12:34:28.915Z,1.88
2023-04-13T12:37:01.149Z,1.60
2023-04-13T12:42:25.606Z,1.80
2023-04-13T13:12:19.654Z,1.65
2023-04-13T13:31:42.896Z,2.22
2023-04-13T13:48:02.978Z,1.45
2023-04-13T21:51:44.817Z,2.63
2023-04-13T21:54:11.898Z,2.88
2023-04-13T21:56:39.083Z,1.80
2023-04-13T21:59:06.069Z,2.42
2023-04-13T22:01:33.266Z,1.75
2023-04-13T22:04:00.802Z,2.72
2023-04-13T22:06:28.038Z,2.92
2023-04-13T22:08:55.167Z,1.92
2023-04-13T22:11:22.208Z,2.38
2023-04-13T22:13:49.301Z,2.28
2023-04-13T22:16:16.922Z,2.50
2023-04-13T22:21:14.843Z,2.38
2023-04-13T22:23:41.897Z,3.60
2023-04-13T22:26:08.909Z,2.15
2023-04-13T22:28:36.082Z,1.63
2023-04-13T22:31:09.332Z,1.95
2023-04-13T22:33:44.406Z,1.70
2023-04-13T22:36:19.488Z,2.25
2023-04-13T22:38:46.942Z,2.05
2023-04-13T22:41:16.316Z,2.15
2023-04-13T22:43:43.328Z,1.80
2023-04-13T22:46:10.404Z,1.77
2023-04-13T22:51:08.376Z,1.40
2023-04-13T22:53:35.506Z,1.35
2023-04-13T22:56:02.597Z,2.08
2023-04-13T22:58:29.636Z,1.42
2023-04-13T23:00:56.913Z,1.70
2023-04-13T23:03:37.518Z,1.63
2023-04-13T23:08:31.579Z,1.85
2023-04-13T23:11:06.926Z,1.50
2023-04-13T23:13:34.018Z,1.70
2023-04-13T23:16:01.549Z,1.75
2023-04-13T23:18:35.276Z,2.00
2023-04-13T23:21:09.438Z,2.20
2023-04-13T23:23:36.576Z,2.28
2023-04-13T23:26:03.638Z,2.95
2023-04-13T23:28:30.675Z,1.90
2023-04-13T23:31:07.219Z,1.88
2023-04-13T23:36:06.095Z,1.40
2023-04-13T23:38:33.416Z,1.60
2023-04-13T23:41:00.601Z,2.05
2023-04-13T23:43:28.151Z,1.90
2023-04-13T23:45:55.219Z,1.77
2023-04-13T23:50:53.836Z,2.30
2023-04-13T23:53:21.066Z,2.22
2023-04-13T23:55:48.140Z,2.35
2023-04-13T23:58:15.292Z,2.40
